createdAt,value
2019-06-10T00:02:11.033Z,31.17
2019-06-10T00:04:50.705Z,31.04
2019-06-10T00:07:28.673Z,30.98
2019-06-10T00:10:07.466Z,31.08
2019-06-10T00:12:45.903Z,30.99
2019-06-10T00:15:23.171Z,31.04
2019-06-10T00:18:25.004Z,30.95
2019-06-10T00:20:41.289Z,30.94
2019-06-10T00:23:21.168Z,30.89
2019-06-10T00:25:57.969Z,31.08
2019-06-10T00:28:37.533Z,31.12
2019-06-10T00:31:15.590Z,31.15
2019-06-10T00:33:53.086Z,30.95
2019-06-10T00:36:30.868Z,31.07
2019-06-10T00:39:13.496Z,31.20
2019-06-10T00:41:52.132Z,31.35
2019-06-10T00:44:31.141Z,31.48
2019-06-10T00:47:12.812Z,31.54
2019-06-10T00:49:48.043Z,32.06
2019-06-10T00:52:25.255Z,31.96
2019-06-10T00:55:04.490Z,32.05
2019-06-10T00:57:42.299Z,31.95
2019-06-10T01:00:25.558Z,32.05
2019-06-10T01:03:02.438Z,31.88
2019-06-10T01:05:42.055Z,31.91
2019-06-10T01:08:21.451Z,31.81
2019-06-10T01:11:04.107Z,31.55
2019-06-10T01:13:38.586Z,31.72
2019-06-10T01:16:16.407Z,31.62
2019-06-10T01:18:53.748Z,31.51
2019-06-10T01:21:31.543Z,31.61
2019-06-10T01:26:44.235Z,32.22
2019-06-10T01:29:21.326Z,32.40
2019-06-10T01:31:58.781Z,32.43
2019-06-10T01:34:37.485Z,32.14
2019-06-10T01:37:16.065Z,32.61
2019-06-10T01:39:54.104Z,33.01
2019-06-10T01:42:31.985Z,33.07
2019-06-10T01:45:11.229Z,33.10
2019-06-10T01:47:50.964Z,33.49
2019-06-10T01:50:27.677Z,33.37
2019-06-10T01:53:05.240Z,33.15
2019-06-10T01:55:43.577Z,33.22
2019-06-10T01:58:23.466Z,32.70
2019-06-10T02:01:13.533Z,32.79
2019-06-10T02:03:49.083Z,32.94
2019-06-10T02:06:27.695Z,32.83
2019-06-10T02:09:09.608Z,32.77
2019-06-10T02:11:47.375Z,33.30
2019-06-10T02:14:24.469Z,33.56
2019-06-10T02:17:01.708Z,33.72
2019-06-10T02:19:41.434Z,33.81
2019-06-10T02:22:20.567Z,34.06
2019-06-10T02:25:01.099Z,34.15
2019-06-10T02:27:38.155Z,33.82
2019-06-10T02:30:28.536Z,33.95
2019-06-10T02:32:54.927Z,33.88
2019-06-10T02:35:43.934Z,33.72
2019-06-10T02:38:19.864Z,33.94
2019-06-10T02:40:53.923Z,34.21
2019-06-10T02:43:36.256Z,34.32
2019-06-10T02:46:13.676Z,34.52
2019-06-10T02:48:49.450Z,34.57
2019-06-10T02:51:31.033Z,34.23
2019-06-10T02:54:07.207Z,34.39
2019-06-10T02:56:45.383Z,34.24
2019-06-10T02:59:27.359Z,34.40
2019-06-10T03:02:03.043Z,34.77
2019-06-10T03:04:43.346Z,34.49
2019-06-10T03:07:24.158Z,34.16
2019-06-10T03:10:00.235Z,34.55
2019-06-10T03:12:38.513Z,34.69
2019-06-10T03:15:15.834Z,34.30
2019-06-10T03:17:53.742Z,33.86
2019-06-10T03:20:32.077Z,34.25
2019-06-10T03:23:11.940Z,34.14
2019-06-10T03:25:52.711Z,34.51
2019-06-10T03:28:32.147Z,34.47
2019-06-10T03:31:15.145Z,33.86
2019-06-10T03:33:53.872Z,33.99
2019-06-10T03:36:29.424Z,33.37
2019-06-10T03:39:08.987Z,33.58
2019-06-10T03:41:47.562Z,33.77
2019-06-10T03:44:26.364Z,34.08
2019-06-10T03:47:03.399Z,34.23
2019-06-10T03:49:52.426Z,33.98
2019-06-10T03:52:23.515Z,33.73
2019-06-10T03:55:02.985Z,34.22
2019-06-10T03:57:42.114Z,34.19
2019-06-10T04:00:21.356Z,33.94
2019-06-10T04:02:59.063Z,33.76
2019-06-10T04:05:36.804Z,33.86
2019-06-10T04:08:14.095Z,33.98
2019-06-10T04:10:52.124Z,33.63
2019-06-10T04:13:30.700Z,33.75
2019-06-10T04:16:08.374Z,34.24
2019-06-10T04:18:45.402Z,33.90
2019-06-10T04:21:25.452Z,33.45
2019-06-10T04:24:03.118Z,33.82
2019-06-10T04:26:43.271Z,34.32
2019-06-10T04:29:23.018Z,34.59
2019-06-10T04:32:02.842Z,34.21
2019-06-10T04:34:40.182Z,33.95
2019-06-10T04:37:18.409Z,34.11
2019-06-10T04:39:57.613Z,34.24
2019-06-10T04:42:36.709Z,33.92
2019-06-10T04:45:15.088Z,33.80
2019-06-10T04:47:52.571Z,34.40
2019-06-10T04:50:37.243Z,34.16
2019-06-10T04:53:12.753Z,34.34
2019-06-10T04:55:52.104Z,34.85
2019-06-10T04:58:30.085Z,34.35
2019-06-10T05:01:07.926Z,33.78
2019-06-10T05:03:46.623Z,34.08
2019-06-10T05:06:25.489Z,34.01
2019-06-10T05:09:04.239Z,34.23
2019-06-10T05:11:43.060Z,33.79
2019-06-10T05:14:23.370Z,33.96
2019-06-10T05:17:02.199Z,34.24
2019-06-10T05:19:42.877Z,33.71
2019-06-10T05:22:22.719Z,33.86
2019-06-10T05:25:02.254Z,34.17
2019-06-10T05:27:39.993Z,33.58
2019-06-10T05:30:17.595Z,33.71
2019-06-10T05:32:55.115Z,34.07
2019-06-10T05:35:33.933Z,33.84
2019-06-10T05:38:12.958Z,33.76
2019-06-10T05:40:52.146Z,33.96
2019-06-10T05:43:29.669Z,34.38
2019-06-10T05:46:08.115Z,34.10
2019-06-10T05:48:47.159Z,34.05
2019-06-10T05:51:26.131Z,33.83
2019-06-10T05:54:04.072Z,33.87
2019-06-10T05:56:43.329Z,33.39
2019-06-10T05:59:23.088Z,33.75
2019-06-10T06:02:02.299Z,33.90
2019-06-10T06:04:39.390Z,33.46
2019-06-10T06:07:17.445Z,33.33
2019-06-10T06:09:55.130Z,33.60
2019-06-10T06:12:34.544Z,33.53
2019-06-10T06:15:12.964Z,33.01
2019-06-10T06:18:06.160Z,33.11
2019-06-10T06:20:35.791Z,33.26
2019-06-10T06:23:12.285Z,33.26
2019-06-10T06:25:52.974Z,33.58
2019-06-10T06:28:32.920Z,33.96
2019-06-10T06:31:09.158Z,33.69
2019-06-10T06:33:46.948Z,33.62
2019-06-10T06:36:24.169Z,33.19
2019-06-10T06:39:02.629Z,33.03
2019-06-10T06:41:42.765Z,32.93
2019-06-10T06:44:20.300Z,33.12
2019-06-10T06:46:57.768Z,33.07
2019-06-10T06:49:37.119Z,33.22
2019-06-10T06:52:16.151Z,32.74
2019-06-10T06:54:54.731Z,33.03
2019-06-10T06:57:33.832Z,33.12
2019-06-10T07:00:37.298Z,33.33
2019-06-10T07:02:52.948Z,33.14
2019-06-10T07:05:32.693Z,32.89
2019-06-10T07:08:09.857Z,33.08
2019-06-10T07:10:47.641Z,32.72
2019-06-10T07:13:24.736Z,32.85
2019-06-10T07:16:03.441Z,32.58
2019-06-10T07:18:49.082Z,32.79
2019-06-10T07:21:22.737Z,33.22
2019-06-10T07:24:03.223Z,33.18
2019-06-10T07:26:49.409Z,32.97
2019-06-10T07:29:19.471Z,33.20
2019-06-10T07:31:57.360Z,33.38
2019-06-10T07:34:36.742Z,33.31
2019-06-10T07:37:13.785Z,33.43
2019-06-10T07:39:52.361Z,33.43
2019-06-10T07:42:32.863Z,33.64
2019-06-10T07:45:10.144Z,33.64
2019-06-10T07:47:47.512Z,33.53
2019-06-10T07:50:26.141Z,33.64
2019-06-10T07:53:04.246Z,33.48
2019-06-10T07:55:46.263Z,33.85
2019-06-10T07:58:22.499Z,33.93
2019-06-10T08:01:02.413Z,33.74
2019-06-10T08:03:46.374Z,33.82
2019-06-10T08:06:22.927Z,33.70
2019-06-10T08:09:02.264Z,33.64
2019-06-10T08:11:44.841Z,33.46
2019-06-10T08:14:22.271Z,33.92
2019-06-10T08:16:59.766Z,34.24
2019-06-10T08:19:40.326Z,34.10
2019-06-10T08:22:29.929Z,33.90
2019-06-10T08:24:56.226Z,33.95
2019-06-10T08:27:33.732Z,33.67
2019-06-10T08:30:22.217Z,33.57
2019-06-10T08:32:54.074Z,33.76
2019-06-10T08:35:39.378Z,33.90
2019-06-10T08:38:12.400Z,33.44
2019-06-10T08:40:52.325Z,33.76
2019-06-10T08:43:29.572Z,33.52
2019-06-10T08:46:07.857Z,33.42
2019-06-10T08:48:47.744Z,33.25
2019-06-10T08:51:24.429Z,33.36
2019-06-10T08:54:02.318Z,33.42
2019-06-10T08:56:47.581Z,33.54
2019-06-10T08:59:23.132Z,33.52
2019-06-10T09:02:02.979Z,33.92
2019-06-10T09:04:43.587Z,33.42
2019-06-10T09:07:20.089Z,33.72
2019-06-10T09:09:58.571Z,33.40
2019-06-10T09:12:38.459Z,33.58
2019-06-10T09:15:16.957Z,33.43
2019-06-10T09:17:56.354Z,33.23
2019-06-10T09:20:34.923Z,33.36
2019-06-10T09:23:21.631Z,33.44
2019-06-10T09:25:54.426Z,33.27
2019-06-10T09:28:32.873Z,33.21
2019-06-10T09:31:09.801Z,32.94
2019-06-10T09:33:50.849Z,32.90
2019-06-10T09:36:27.089Z,33.18
2019-06-10T09:39:05.842Z,33.11
2019-06-10T09:41:53.484Z,33.27
2019-06-10T09:44:24.133Z,33.20
2019-06-10T09:47:03.432Z,33.15
2019-06-10T09:49:45.349Z,33.08
2019-06-10T09:52:23.914Z,33.27
2019-06-10T09:55:02.770Z,33.37
2019-06-10T09:57:41.256Z,33.63
2019-06-10T10:00:23.349Z,33.31
2019-06-10T10:03:03.365Z,32.98
2019-06-10T10:05:52.568Z,33.29
2019-06-10T10:08:20.087Z,33.31
2019-06-10T10:10:59.092Z,33.47
2019-06-10T10:13:37.341Z,33.32
2019-06-10T10:16:15.121Z,32.95
2019-06-10T10:19:00.392Z,32.90
2019-06-10T10:21:32.314Z,32.70
2019-06-10T10:24:12.347Z,32.82
2019-06-10T10:26:50.985Z,32.92
2019-06-10T10:29:27.431Z,32.98
2019-06-10T10:32:06.094Z,33.06
2019-06-10T10:34:47.030Z,33.01
2019-06-10T10:37:24.054Z,32.79
2019-06-10T10:40:03.209Z,32.70
2019-06-10T10:42:45.967Z,32.77
2019-06-10T10:45:22.692Z,32.72
2019-06-10T10:48:02.513Z,32.99
2019-06-10T10:50:39.522Z,33.09
2019-06-10T10:53:18.832Z,32.88
2019-06-10T10:55:56.191Z,32.82
2019-06-10T10:58:33.746Z,32.56
2019-06-10T11:01:14.605Z,32.28
2019-06-10T11:03:52.506Z,32.38
2019-06-10T11:06:32.148Z,32.60
2019-06-10T11:09:13.018Z,32.41
2019-06-10T11:11:53.460Z,32.39
2019-06-10T11:14:29.955Z,32.27
2019-06-10T11:17:08.184Z,32.47
2019-06-10T11:19:45.226Z,32.42
2019-06-10T11:22:23.239Z,32.78
2019-06-10T11:25:00.945Z,32.65
2019-06-10T11:27:37.960Z,32.72
2019-06-10T11:30:15.987Z,32.50
2019-06-10T11:32:55.884Z,32.49
2019-06-10T11:35:32.900Z,32.54
2019-06-10T11:38:12.675Z,32.23
2019-06-10T11:40:49.886Z,32.49
2019-06-10T11:43:27.941Z,32.49
2019-06-10T11:46:07.777Z,32.52
2019-06-10T11:48:46.983Z,32.24
2019-06-10T11:51:24.580Z,31.99
2019-06-10T11:54:03.453Z,32.26
2019-06-10T11:56:42.162Z,32.26
2019-06-10T11:59:19.856Z,32.22
2019-06-10T12:02:00.415Z,32.45
2019-06-10T12:04:37.305Z,32.41
2019-06-10T12:07:16.198Z,32.31
2019-06-10T12:09:55.689Z,32.37
2019-06-10T12:12:33.879Z,32.40
2019-06-10T12:15:12.302Z,32.47
2019-06-10T12:17:58.594Z,32.53
2019-06-10T12:20:33.396Z,32.36
2019-06-10T12:23:09.606Z,32.36
2019-06-10T12:25:47.989Z,32.42
2019-06-10T12:28:26.115Z,32.40
2019-06-10T12:31:06.913Z,32.43
2019-06-10T12:33:42.919Z,32.39
2019-06-10T12:36:20.221Z,32.53
2019-06-10T12:39:06.410Z,32.50
2019-06-10T12:41:39.198Z,32.28
2019-06-10T12:44:16.836Z,32.45
2019-06-10T12:46:57.911Z,32.51
2019-06-10T12:49:34.704Z,32.62
2019-06-10T12:52:13.096Z,32.56
2019-06-10T12:54:50.447Z,32.68
2019-06-10T12:57:28.200Z,32.35
2019-06-10T13:00:19.388Z,32.52
2019-06-10T13:02:46.671Z,32.56
2019-06-10T13:05:24.559Z,32.68
2019-06-10T13:08:05.493Z,32.68
2019-06-10T13:10:43.271Z,32.69
2019-06-10T13:13:22.774Z,32.59
2019-06-10T13:16:01.392Z,32.80
2019-06-10T13:18:39.622Z,32.62
2019-06-10T13:21:18.041Z,32.65
2019-06-10T13:23:57.483Z,32.76
2019-06-10T13:26:36.117Z,32.75
2019-06-10T13:29:17.343Z,32.31
2019-06-10T13:31:53.470Z,32.44
2019-06-10T13:34:32.448Z,32.34
2019-06-10T13:37:12.558Z,32.56
2019-06-10T13:39:49.358Z,32.48
2019-06-10T13:42:27.109Z,32.59
2019-06-10T13:45:09.676Z,32.57
2019-06-10T13:47:47.225Z,32.50
2019-06-10T13:50:25.818Z,32.45
2019-06-10T13:53:06.555Z,32.52
2019-06-10T13:55:44.795Z,32.57
2019-06-10T13:58:22.989Z,32.31
2019-06-10T14:01:02.044Z,32.25
2019-06-10T14:03:39.707Z,32.27
2019-06-10T14:06:34.039Z,32.33
2019-06-10T14:08:56.887Z,32.20
2019-06-10T14:11:34.357Z,32.30
2019-06-10T14:14:17.597Z,32.20
2019-06-10T14:16:53.992Z,32.21
2019-06-10T14:19:32.360Z,32.12
2019-06-10T14:22:10.901Z,32.05
2019-06-10T14:24:49.626Z,32.26
2019-06-10T14:27:28.155Z,32.12
2019-06-10T14:30:06.588Z,32.10
2019-06-10T14:32:45.563Z,32.08
2019-06-10T14:35:26.746Z,31.94
2019-06-10T14:38:03.497Z,32.00
2019-06-10T14:40:42.963Z,32.00
2019-06-10T14:43:23.131Z,31.69
2019-06-10T14:46:00.740Z,31.69
2019-06-10T14:48:38.362Z,31.82
2019-06-10T14:51:17.172Z,31.91
2019-06-10T14:53:54.844Z,31.90
2019-06-10T14:56:33.297Z,31.85
2019-06-10T14:59:14.090Z,31.89
2019-06-10T15:01:52.132Z,31.76
2019-06-10T15:04:29.065Z,31.67
2019-06-10T15:07:07.261Z,31.78
2019-06-10T15:09:44.758Z,31.77
2019-06-10T15:12:22.974Z,31.81
2019-06-10T15:15:00.372Z,31.77
2019-06-10T15:17:39.299Z,31.84
2019-06-10T15:20:16.655Z,31.77
2019-06-10T15:22:53.571Z,31.71
2019-06-10T15:25:48.676Z,31.68
2019-06-10T15:28:13.184Z,31.76
2019-06-10T15:30:52.870Z,31.72
2019-06-10T15:33:33.143Z,31.63
2019-06-10T15:36:11.242Z,31.63
2019-06-10T15:38:49.677Z,31.65
2019-06-10T15:41:26.842Z,31.60
2019-06-10T15:44:05.225Z,31.41
2019-06-10T15:46:43.202Z,31.58
2019-06-10T15:49:25.476Z,31.70
2019-06-10T15:52:03.065Z,31.64
2019-06-10T15:54:42.537Z,31.75
2019-06-10T15:57:34.863Z,31.67
2019-06-10T15:59:59.743Z,31.64
2019-06-10T16:02:38.941Z,31.48
2019-06-10T16:05:17.791Z,31.47
2019-06-10T16:07:55.709Z,31.59
2019-06-10T16:10:34.775Z,31.55
2019-06-10T16:13:12.598Z,31.67
2019-06-10T16:15:52.939Z,31.87
2019-06-10T16:18:29.472Z,31.79
2019-06-10T16:21:07.293Z,31.68
2019-06-10T16:23:44.551Z,31.72
2019-06-10T16:26:25.297Z,31.98
2019-06-10T16:29:02.721Z,31.95
2019-06-10T16:31:42.597Z,31.75
2019-06-10T16:34:21.943Z,31.78
2019-06-10T16:37:02.428Z,31.75
2019-06-10T16:39:39.008Z,31.74
2019-06-10T16:42:17.444Z,31.72
2019-06-10T16:44:54.862Z,31.73
2019-06-10T16:47:32.832Z,31.80
2019-06-10T16:50:12.026Z,31.59
2019-06-10T16:52:53.386Z,31.35
2019-06-10T16:55:30.423Z,31.38
2019-06-10T16:58:08.653Z,31.59
2019-06-10T17:00:45.852Z,31.59
2019-06-10T17:03:26.860Z,31.55
2019-06-10T17:06:04.607Z,31.60
2019-06-10T17:08:42.777Z,31.56
2019-06-10T17:11:23.724Z,31.54
2019-06-10T17:14:00.403Z,31.58
2019-06-10T17:16:40.543Z,31.61
2019-06-10T17:19:16.548Z,31.66
2019-06-10T17:21:53.887Z,31.80
2019-06-10T17:24:33.921Z,31.50
2019-06-10T17:27:13.127Z,31.35
2019-06-10T17:29:52.010Z,31.08
2019-06-10T17:32:32.867Z,31.33
2019-06-10T17:35:12.526Z,31.35
2019-06-10T17:37:52.201Z,31.45
2019-06-10T17:40:31.653Z,31.51
2019-06-10T17:43:09.370Z,31.46
2019-06-10T17:45:47.268Z,31.39
2019-06-10T17:48:26.029Z,31.23
2019-06-10T17:51:03.150Z,31.03
2019-06-10T17:53:42.565Z,31.43
2019-06-10T17:56:23.148Z,31.51
2019-06-10T17:58:59.326Z,31.22
2019-06-10T18:01:36.583Z,30.99
2019-06-10T18:04:14.070Z,30.91
2019-06-10T18:06:52.900Z,31.10
2019-06-10T18:09:33.260Z,31.12
2019-06-10T18:12:12.951Z,31.34
2019-06-10T18:14:52.335Z,31.53
2019-06-10T18:17:31.192Z,31.81
2019-06-10T18:20:09.525Z,31.46
2019-06-10T18:22:46.633Z,31.17
2019-06-10T18:25:24.636Z,31.23
2019-06-10T18:28:02.927Z,31.41
2019-06-10T18:30:43.315Z,31.51
2019-06-10T18:33:22.730Z,31.31
2019-06-10T18:35:59.382Z,31.35
2019-06-10T18:38:39.696Z,31.60
2019-06-10T18:41:18.534Z,31.56
2019-06-10T18:43:56.007Z,31.73
2019-06-10T18:46:36.106Z,31.72
2019-06-10T18:49:13.469Z,31.74
2019-06-10T18:51:53.020Z,31.68
2019-06-10T18:54:29.611Z,31.45
2019-06-10T18:57:07.047Z,31.44
2019-06-10T18:59:45.355Z,31.64
2019-06-10T19:02:22.812Z,31.52
2019-06-10T19:05:02.830Z,31.67
2019-06-10T19:07:42.314Z,31.57
2019-06-10T19:10:18.910Z,31.52
2019-06-10T19:12:58.413Z,31.57
2019-06-10T19:15:35.827Z,31.56
2019-06-10T19:18:15.472Z,31.60
2019-06-10T19:20:53.450Z,31.67
2019-06-10T19:23:33.413Z,31.80
2019-06-10T19:26:10.023Z,31.65
2019-06-10T19:28:47.144Z,31.59
2019-06-10T19:31:25.672Z,31.71
2019-06-10T19:34:03.434Z,31.93
2019-06-10T19:36:41.847Z,31.59
2019-06-10T19:39:19.355Z,31.27
2019-06-10T19:42:02.806Z,31.03
2019-06-10T19:44:45.583Z,31.05
2019-06-10T19:47:23.371Z,31.04
2019-06-10T19:49:59.946Z,30.99
2019-06-10T19:52:38.829Z,30.92
2019-06-10T19:55:16.347Z,31.07
2019-06-10T19:57:54.390Z,31.32
2019-06-10T20:00:33.162Z,31.16
2019-06-10T20:03:10.974Z,30.98
2019-06-10T20:05:48.243Z,31.09
2019-06-10T20:08:26.149Z,31.19
2019-06-10T20:11:03.525Z,31.23
2019-06-10T20:13:43.686Z,31.02
2019-06-10T20:16:22.247Z,31.04
2019-06-10T20:18:59.661Z,31.02
2019-06-10T20:21:38.069Z,30.98
2019-06-10T20:24:16.240Z,30.83
2019-06-10T20:26:53.794Z,31.10
2019-06-10T20:29:32.911Z,31.26
2019-06-10T20:32:10.462Z,31.08
2019-06-10T20:34:49.788Z,30.84
2019-06-10T20:37:27.648Z,30.82
2019-06-10T20:40:05.483Z,30.83
2019-06-10T20:42:42.844Z,30.87
2019-06-10T20:45:23.088Z,31.02
2019-06-10T20:48:02.687Z,30.90
2019-06-10T20:50:44.358Z,30.94
2019-06-10T20:53:20.276Z,30.91
2019-06-10T20:55:59.316Z,30.95
2019-06-10T20:58:38.685Z,30.98
2019-06-10T21:01:16.294Z,30.80
2019-06-10T21:03:54.405Z,30.81
2019-06-10T21:06:33.059Z,30.88
2019-06-10T21:09:13.335Z,31.01
2019-06-10T21:11:51.923Z,30.90
2019-06-10T21:14:29.955Z,30.82
2019-06-10T21:17:07.725Z,30.90
2019-06-10T21:19:47.919Z,30.95
2019-06-10T21:22:25.760Z,31.22
2019-06-10T21:25:02.857Z,30.97
2019-06-10T21:27:44.665Z,30.88
2019-06-10T21:30:36.490Z,31.02
2019-06-10T21:33:03.134Z,31.16
2019-06-10T21:35:44.111Z,31.03
2019-06-10T21:38:19.922Z,30.88
2019-06-10T21:40:57.121Z,30.84
2019-06-10T21:43:34.520Z,31.02
2019-06-10T21:46:13.193Z,31.37
2019-06-10T21:48:53.198Z,31.16
2019-06-10T21:51:34.577Z,31.29
2019-06-10T21:54:12.009Z,31.29
2019-06-10T21:56:52.384Z,31.50
2019-06-10T21:59:28.854Z,31.33
2019-06-10T22:02:06.213Z,31.00
2019-06-10T22:04:44.874Z,30.92
2019-06-10T22:07:22.786Z,31.12
2019-06-10T22:10:02.589Z,31.37
2019-06-10T22:12:42.167Z,31.08
2019-06-10T22:15:22.597Z,30.88
2019-06-10T22:17:59.414Z,31.02
2019-06-10T22:20:37.047Z,31.29
2019-06-10T22:23:15.710Z,31.37
2019-06-10T22:25:55.678Z,31.23
2019-06-10T22:28:32.807Z,30.99
2019-06-10T22:31:19.820Z,31.22
2019-06-10T22:33:49.976Z,31.37
2019-06-10T22:36:27.786Z,31.36
2019-06-10T22:39:06.162Z,31.27
2019-06-10T22:41:45.502Z,31.31
2019-06-10T22:44:25.462Z,31.16
2019-06-10T22:47:03.384Z,30.84
2019-06-10T22:49:43.168Z,30.95
2019-06-10T22:52:23.137Z,31.09
2019-06-10T22:55:03.360Z,31.27
2019-06-10T22:57:39.556Z,31.06
2019-06-10T23:00:17.173Z,30.86
2019-06-10T23:02:56.548Z,31.04
2019-06-10T23:05:34.459Z,31.24
2019-06-10T23:08:12.904Z,31.08
2019-06-10T23:10:51.196Z,30.73
2019-06-10T23:13:29.460Z,30.78
2019-06-10T23:16:07.290Z,30.97
2019-06-10T23:18:46.340Z,30.94
2019-06-10T23:21:23.502Z,30.82
2019-06-10T23:24:03.210Z,30.77
2019-06-10T23:26:42.567Z,30.90
2019-06-10T23:29:22.631Z,31.03
2019-06-10T23:32:05.871Z,30.98
2019-06-10T23:34:42.101Z,30.82
2019-06-10T23:37:18.979Z,30.86
2019-06-10T23:39:56.870Z,30.96
2019-06-10T23:42:34.434Z,30.95
2019-06-10T23:45:12.917Z,30.91
2019-06-10T23:47:53.060Z,30.84
2019-06-10T23:50:29.737Z,30.89
2019-06-10T23:53:07.701Z,31.10
2019-06-10T23:55:46.137Z,31.03
2019-06-10T23:58:25.168Z,30.93
